Time;durP1;ratioP1;P1;durP2;ratioP2;P2;SDS_P1;SDS_P2;PMS_P1;PMS_P2;Temp;Humidity;BMP_temperature;BMP_pressure;BME280_temperature;BME280_humidity;BME280_pressure;Samples;Min_cycle;Max_cycle;Signal;HPM_P1;HPM_P2
2023/04/21 00:02:25;;;;;;;28.35;20.77;;;11.80;99.90;;;;;;5052087;28;20032;-63
2023/04/21 00:04:51;;;;;;;30.30;20.48;;;11.80;99.90;;;;;;5052675;28;20036;-63
2023/04/21 00:07:18;;;;;;;26.30;19.73;;;11.80;99.90;;;;;;5052165;28;20412;-63
2023/04/21 00:09:44;;;;;;;27.67;20.05;;;11.80;99.90;;;;;;5052940;28;20025;-63
2023/04/21 00:12:10;;;;;;;27.83;19.48;;;11.80;99.90;;;;;;5053702;28;20035;-63
2023/04/21 00:14:35;;;;;;;32.67;19.85;;;11.80;99.90;;;;;;5054713;28;20021;-63
2023/04/21 00:17:01;;;;;;;27.65;20.10;;;11.70;99.90;;;;;;5052600;28;20033;-63
2023/04/21 00:19:28;;;;;;;28.63;19.40;;;11.70;99.90;;;;;;5052038;28;20022;-63
2023/04/21 00:21:57;;;;;;;27.70;19.83;;;11.70;99.90;;;;;;5053640;28;20022;-63
2023/04/21 00:24:26;;;;;;;32.70;20.20;;;11.70;99.90;;;;;;5051552;28;20171;-63
2023/04/21 00:26:51;;;;;;;27.55;20.00;;;11.70;99.90;;;;;;5052240;28;20114;-63
2023/04/21 00:29:17;;;;;;;28.27;19.35;;;11.60;99.90;;;;;;5052224;28;20064;-62
2023/04/21 00:31:43;;;;;;;27.33;20.25;;;11.60;99.90;;;;;;5056234;28;20060;-63
2023/04/21 00:34:09;;;;;;;27.13;18.88;;;11.60;99.90;;;;;;5056357;28;20120;-63
2023/04/21 00:36:34;;;;;;;28.55;20.45;;;11.60;99.90;;;;;;5055915;28;20381;-63
2023/04/21 00:39:00;;;;;;;29.67;19.35;;;11.60;99.90;;;;;;5055989;28;20036;-63
2023/04/21 00:41:28;;;;;;;23.30;18.63;;;11.70;99.90;;;;;;5056025;28;20033;-63
2023/04/21 00:44:00;;;;;;;26.70;18.58;;;11.70;99.90;;;;;;5055963;28;20103;-63
2023/04/21 00:46:26;;;;;;;26.92;18.05;;;11.60;99.90;;;;;;5055663;28;20044;-63
2023/04/21 00:48:51;;;;;;;25.70;18.05;;;11.60;99.90;;;;;;5055735;28;20025;-63
2023/04/21 00:51:17;;;;;;;26.05;18.30;;;11.60;99.90;;;;;;5054765;28;20032;-64
2023/04/21 00:53:43;;;;;;;27.63;17.75;;;11.50;99.90;;;;;;5056268;28;20033;-63
2023/04/21 00:56:10;;;;;;;28.02;17.42;;;11.50;99.90;;;;;;5055646;28;20025;-63
2023/04/21 00:58:37;;;;;;;23.13;17.70;;;11.50;99.90;;;;;;5055157;28;20040;-63
2023/04/21 01:01:04;;;;;;;29.98;18.80;;;11.40;99.90;;;;;;5055642;28;20090;-63
2023/04/21 01:03:30;;;;;;;26.90;18.48;;;11.40;99.90;;;;;;5055219;28;20037;-64
2023/04/21 01:05:56;;;;;;;29.02;17.02;;;11.40;99.90;;;;;;5055657;28;20029;-64
2023/04/21 01:08:22;;;;;;;23.30;16.38;;;11.40;99.90;;;;;;5054914;28;20481;-64
2023/04/21 01:10:47;;;;;;;22.85;16.98;;;11.30;99.90;;;;;;5055525;28;20121;-64
2023/04/21 01:13:13;;;;;;;24.13;17.58;;;11.30;99.90;;;;;;5055527;28;20032;-64
2023/04/21 01:15:39;;;;;;;23.75;17.88;;;11.30;99.90;;;;;;5056274;28;20028;-64
2023/04/21 01:18:04;;;;;;;23.92;16.92;;;11.20;99.90;;;;;;5055901;28;20021;-64
2023/04/21 01:20:30;;;;;;;27.08;16.25;;;11.20;99.90;;;;;;5055376;28;20079;-63
2023/04/21 01:22:55;;;;;;;22.55;17.20;;;11.10;99.90;;;;;;5055649;28;20114;-64
2023/04/21 01:25:24;;;;;;;20.77;15.85;;;11.10;99.90;;;;;;5058046;28;20025;-64
2023/04/21 01:27:51;;;;;;;23.42;15.93;;;11.10;99.90;;;;;;5056318;28;20489;-63
2023/04/21 01:30:16;;;;;;;24.88;16.83;;;11.00;99.90;;;;;;5058644;28;20080;-64
2023/04/21 01:32:42;;;;;;;28.23;18.13;;;11.00;99.90;;;;;;5060576;28;20029;-63
2023/04/21 01:35:08;;;;;;;26.38;17.67;;;10.90;99.90;;;;;;5056820;28;20028;-63
2023/04/21 01:37:34;;;;;;;24.83;17.30;;;10.90;99.90;;;;;;5054681;28;20033;-63
2023/04/21 01:40:04;;;;;;;29.92;17.55;;;10.90;99.90;;;;;;5055106;28;20032;-63
2023/04/21 01:42:32;;;;;;;27.70;18.02;;;10.90;99.90;;;;;;5053620;28;20032;-63
2023/04/21 01:44:59;;;;;;;22.08;16.92;;;10.90;99.90;;;;;;5054918;28;20052;-63
2023/04/21 01:47:25;;;;;;;22.50;17.17;;;10.90;99.90;;;;;;5054552;28;20031;-63
2023/04/21 01:49:51;;;;;;;23.02;16.92;;;10.90;99.90;;;;;;5054694;28;20159;-64
2023/04/21 01:52:17;;;;;;;23.25;16.25;;;10.90;99.90;;;;;;5054293;28;20124;-65
2023/04/21 01:54:43;;;;;;;23.80;18.17;;;10.90;99.90;;;;;;5054555;28;20414;-63
2023/04/21 01:57:08;;;;;;;23.33;17.23;;;10.90;99.90;;;;;;5054557;28;20485;-63
2023/04/21 01:59:36;;;;;;;25.48;17.60;;;10.90;99.90;;;;;;5054223;28;20021;-63
2023/04/21 02:02:02;;;;;;;26.27;18.98;;;10.90;99.90;;;;;;5054393;28;20392;-63
2023/04/21 02:04:27;;;;;;;28.75;19.02;;;10.80;99.90;;;;;;5054067;28;20100;-64
2023/04/21 02:06:53;;;;;;;30.17;19.85;;;10.90;99.90;;;;;;5054486;28;20104;-62
2023/04/21 02:09:19;;;;;;;28.95;19.60;;;10.90;99.90;;;;;;5054341;28;20060;-63
2023/04/21 02:11:44;;;;;;;31.00;20.17;;;10.90;99.90;;;;;;5054338;28;20402;-63
2023/04/21 02:14:10;;;;;;;29.15;19.95;;;10.90;99.90;;;;;;5054268;28;20048;-63
2023/04/21 02:16:35;;;;;;;28.02;19.17;;;10.90;99.90;;;;;;5054008;28;20017;-63
2023/04/21 02:19:04;;;;;;;30.17;20.73;;;10.80;99.90;;;;;;5054358;28;20049;-63
2023/04/21 02:21:31;;;;;;;28.10;19.27;;;10.90;99.90;;;;;;5053822;28;20037;-63
2023/04/21 02:23:57;;;;;;;33.30;22.08;;;10.80;99.90;;;;;;5054183;28;20021;-63
2023/04/21 02:26:23;;;;;;;30.60;21.30;;;10.80;99.90;;;;;;5053182;28;20075;-64
2023/04/21 02:28:49;;;;;;;29.88;21.40;;;10.90;99.90;;;;;;5053948;28;20025;-63
2023/04/21 02:31:15;;;;;;;30.55;21.60;;;10.90;99.90;;;;;;5053977;28;20120;-64
2023/04/21 02:33:41;;;;;;;32.38;21.48;;;10.90;99.90;;;;;;5053825;28;20033;-64
2023/04/21 02:36:06;;;;;;;30.05;20.85;;;10.90;99.90;;;;;;5054052;28;20029;-64
2023/04/21 02:38:32;;;;;;;30.83;21.60;;;10.90;99.90;;;;;;5053521;28;20480;-64
2023/04/21 02:40:58;;;;;;;34.33;21.85;;;10.80;99.90;;;;;;5053763;28;20040;-64
2023/04/21 02:43:24;;;;;;;29.88;21.17;;;10.80;99.90;;;;;;5053217;28;20174;-64
2023/04/21 02:45:50;;;;;;;31.42;20.15;;;10.80;99.90;;;;;;5053487;28;20087;-64
2023/04/21 02:48:19;;;;;;;28.75;21.00;;;10.80;99.90;;;;;;5053694;28;20029;-63
2023/04/21 02:50:45;;;;;;;28.40;21.35;;;10.80;99.90;;;;;;5053124;28;20033;-63
2023/04/21 02:53:11;;;;;;;35.00;22.02;;;10.80;99.90;;;;;;5051956;28;20139;-64
2023/04/21 02:55:36;;;;;;;29.77;22.17;;;10.80;99.90;;;;;;5052998;28;20029;-64
2023/04/21 02:58:02;;;;;;;33.03;20.63;;;10.70;99.90;;;;;;5052141;28;20028;-64
2023/04/21 03:00:28;;;;;;;28.83;21.77;;;10.70;99.90;;;;;;5052926;28;20035;-63
2023/04/21 03:02:53;;;;;;;31.45;21.90;;;10.70;99.90;;;;;;5053310;28;20060;-63
2023/04/21 03:05:19;;;;;;;30.77;21.90;;;10.60;99.90;;;;;;5053333;28;20040;-63
2023/04/21 03:07:45;;;;;;;30.98;22.40;;;10.60;99.90;;;;;;5052871;28;20454;-64
2023/04/21 03:10:11;;;;;;;32.10;22.08;;;10.60;99.90;;;;;;5053107;28;20044;-63
2023/04/21 03:12:37;;;;;;;29.05;21.83;;;10.60;99.90;;;;;;5052564;28;20067;-63
2023/04/21 03:15:03;;;;;;;32.88;22.63;;;10.60;99.90;;;;;;5053191;28;20120;-63
2023/04/21 03:17:28;;;;;;;32.45;21.70;;;10.60;99.90;;;;;;5053119;28;20063;-63
2023/04/21 03:19:55;;;;;;;31.08;21.77;;;10.50;99.90;;;;;;5053115;28;20056;-63
2023/04/21 03:22:20;;;;;;;30.48;22.15;;;10.50;99.90;;;;;;5053390;28;20087;-63
2023/04/21 03:24:46;;;;;;;30.35;20.73;;;10.50;99.90;;;;;;5052657;28;20075;-63
2023/04/21 03:27:11;;;;;;;27.42;21.52;;;10.50;99.90;;;;;;5052566;28;20029;-64
2023/04/21 03:29:37;;;;;;;36.00;22.25;;;10.50;99.90;;;;;;5052406;28;20041;-63
2023/04/21 03:32:03;;;;;;;30.02;21.58;;;10.50;99.90;;;;;;5052407;28;20064;-64
2023/04/21 03:34:28;;;;;;;31.88;22.80;;;10.50;99.90;;;;;;5052151;28;20025;-64
2023/04/21 03:36:54;;;;;;;30.67;21.67;;;10.50;99.90;;;;;;5051514;28;20021;-64
2023/04/21 03:39:20;;;;;;;34.35;22.10;;;10.50;99.90;;;;;;5051455;28;20021;-64
2023/04/21 03:41:46;;;;;;;30.00;22.05;;;10.50;99.90;;;;;;5051033;28;20397;-64
2023/04/21 03:44:11;;;;;;;26.25;21.20;;;10.40;99.90;;;;;;5052463;28;20041;-64
2023/04/21 03:46:37;;;;;;;26.80;22.13;;;10.40;99.90;;;;;;5052055;28;20021;-64
2023/04/21 03:49:03;;;;;;;34.22;22.98;;;10.40;99.90;;;;;;5052384;28;20025;-64
2023/04/21 03:51:28;;;;;;;32.95;21.70;;;10.30;99.90;;;;;;5051954;28;20033;-64
2023/04/21 03:53:54;;;;;;;29.23;21.90;;;10.30;99.90;;;;;;5052572;28;20025;-64
2023/04/21 03:56:20;;;;;;;30.63;22.55;;;10.30;99.90;;;;;;5052522;28;20065;-64
2023/04/21 03:58:45;;;;;;;33.83;22.50;;;10.30;99.90;;;;;;5052061;28;20036;-64
2023/04/21 04:01:11;;;;;;;33.45;22.65;;;10.30;99.90;;;;;;5052620;28;20112;-64
2023/04/21 04:03:36;;;;;;;31.67;23.33;;;10.20;99.90;;;;;;5052076;28;20033;-64
2023/04/21 04:06:03;;;;;;;30.88;21.80;;;10.20;99.90;;;;;;5051800;28;20465;-64
2023/04/21 04:08:29;;;;;;;32.45;22.73;;;10.20;99.90;;;;;;5051887;28;20056;-64
2023/04/21 04:10:55;;;;;;;32.15;23.30;;;10.20;99.90;;;;;;5052554;28;20041;-64
2023/04/21 04:13:21;;;;;;;34.88;22.33;;;10.20;99.90;;;;;;5052525;28;20055;-64
2023/04/21 04:15:47;;;;;;;29.27;22.25;;;10.20;99.90;;;;;;5051912;28;20079;-65
2023/04/21 04:18:12;;;;;;;30.63;22.65;;;10.20;99.90;;;;;;5052058;28;20040;-64
2023/04/21 04:20:38;;;;;;;30.15;23.02;;;10.20;99.90;;;;;;5050569;28;20072;-64
2023/04/21 04:23:04;;;;;;;32.63;22.48;;;10.20;99.90;;;;;;5052194;28;20107;-63
2023/04/21 04:25:29;;;;;;;31.60;22.75;;;10.20;99.90;;;;;;5051626;28;20033;-63
2023/04/21 04:27:56;;;;;;;30.45;22.55;;;10.20;99.90;;;;;;5052424;28;20024;-63
2023/04/21 04:30:22;;;;;;;33.70;24.17;;;10.20;99.90;;;;;;5052033;28;20021;-63
2023/04/21 04:32:48;;;;;;;31.75;21.55;;;10.20;99.90;;;;;;5051852;28;20242;-63
2023/04/21 04:35:15;;;;;;;32.75;23.40;;;10.20;99.90;;;;;;5052158;28;20128;-63
2023/04/21 04:37:40;;;;;;;30.20;22.02;;;10.20;99.90;;;;;;5051841;28;20021;-63
2023/04/21 04:40:13;;;;;;;29.55;22.15;;;10.20;99.90;;;;;;5050830;28;20481;-63
2023/04/21 04:42:39;;;;;;;35.17;22.20;;;10.30;99.90;;;;;;5051832;28;20033;-63
2023/04/21 04:45:07;;;;;;;30.58;21.48;;;10.30;99.90;;;;;;5051938;28;20136;-64
2023/04/21 04:47:36;;;;;;;31.42;23.10;;;10.30;99.90;;;;;;5051634;28;20025;-63
2023/04/21 04:50:03;;;;;;;31.95;23.10;;;10.30;99.90;;;;;;5052080;28;20035;-63
2023/04/21 04:52:29;;;;;;;35.30;23.30;;;10.30;99.90;;;;;;5051760;28;20426;-63
2023/04/21 04:54:55;;;;;;;30.52;23.40;;;10.40;99.90;;;;;;5051292;28;20032;-63
2023/04/21 04:57:20;;;;;;;30.63;21.65;;;10.40;99.90;;;;;;5052101;28;20048;-63
2023/04/21 04:59:46;;;;;;;32.72;24.08;;;10.40;99.90;;;;;;5051334;28;20025;-64
2023/04/21 05:02:11;;;;;;;30.45;22.70;;;10.50;99.90;;;;;;5050335;28;20495;-63
2023/04/21 05:04:38;;;;;;;30.50;22.45;;;10.50;99.90;;;;;;5051473;28;20033;-63
2023/04/21 05:07:06;;;;;;;31.95;22.40;;;10.50;99.90;;;;;;5051933;28;20373;-63
2023/04/21 05:09:32;;;;;;;36.70;23.40;;;10.50;99.90;;;;;;5051514;28;20521;-63
2023/04/21 05:11:58;;;;;;;32.55;22.52;;;10.60;99.90;;;;;;5051755;28;20040;-63
2023/04/21 05:14:25;;;;;;;30.55;22.15;;;10.60;99.90;;;;;;5051658;28;20025;-63
2023/04/21 05:16:51;;;;;;;34.92;23.88;;;10.70;99.90;;;;;;5052400;28;20170;-63
2023/04/21 05:19:17;;;;;;;29.50;21.85;;;10.70;99.90;;;;;;5055361;28;20111;-63
2023/04/21 05:21:42;;;;;;;30.08;23.58;;;10.80;99.90;;;;;;5054919;28;20029;-63
2023/04/21 05:24:08;;;;;;;32.05;21.75;;;10.80;99.90;;;;;;5055340;28;20479;-62
2023/04/21 05:26:34;;;;;;;33.22;24.25;;;10.90;99.90;;;;;;5053781;28;20025;-67
2023/04/21 05:28:59;;;;;;;31.67;23.27;;;10.90;99.90;;;;;;5055034;28;20025;-63
2023/04/21 05:31:25;;;;;;;31.13;20.70;;;11.00;99.90;;;;;;5054805;28;20039;-64
2023/04/21 05:33:51;;;;;;;30.85;23.30;;;11.00;99.90;;;;;;5054706;28;20051;-64
2023/04/21 05:36:16;;;;;;;33.20;22.58;;;11.10;99.90;;;;;;5054023;28;20475;-64
2023/04/21 05:38:42;;;;;;;38.20;23.77;;;11.10;99.90;;;;;;5053049;28;20062;-64
2023/04/21 05:41:08;;;;;;;31.15;22.55;;;11.20;99.90;;;;;;5054733;28;20102;-64
2023/04/21 05:43:34;;;;;;;34.78;22.80;;;11.30;99.90;;;;;;5053623;28;20120;-67
2023/04/21 05:46:08;;;;;;;33.25;22.52;;;11.30;99.90;;;;;;5054432;28;20131;-63
2023/04/21 05:48:34;;;;;;;36.47;23.25;;;11.40;99.90;;;;;;5054444;28;20025;-67
2023/04/21 05:51:14;;;;;;;31.77;24.00;;;11.50;99.90;;;;;;5054181;28;20474;-64
2023/04/21 05:53:40;;;;;;;35.80;23.75;;;11.60;99.90;;;;;;5054060;28;20071;-64
2023/04/21 05:56:08;;;;;;;34.58;23.15;;;11.80;99.90;;;;;;5054228;28;20465;-64
2023/04/21 05:58:34;;;;;;;36.55;23.20;;;12.00;99.90;;;;;;5054029;28;20419;-66
2023/04/21 06:01:00;;;;;;;32.30;21.17;;;12.20;99.90;;;;;;5054138;28;20033;-64
2023/04/21 06:03:26;;;;;;;31.20;21.48;;;12.50;99.90;;;;;;5054698;28;20109;-64
2023/04/21 06:05:55;;;;;;;27.52;19.02;;;12.70;99.90;;;;;;5053420;28;20029;-64
2023/04/21 06:08:22;;;;;;;25.50;17.50;;;13.00;99.90;;;;;;5054450;28;20111;-64
2023/04/21 06:10:47;;;;;;;25.20;18.35;;;13.20;99.90;;;;;;5053811;28;20355;-63
2023/04/21 06:13:13;;;;;;;24.88;16.13;;;13.50;99.90;;;;;;5054099;28;20032;-63
2023/04/21 06:15:39;;;;;;;23.27;15.30;;;13.70;99.90;;;;;;5053657;28;20029;-64
2023/04/21 06:18:04;;;;;;;23.33;15.40;;;14.00;99.90;;;;;;5053031;28;20025;-63
2023/04/21 06:20:30;;;;;;;21.30;15.07;;;14.20;99.90;;;;;;5053544;28;20029;-63
2023/04/21 06:22:56;;;;;;;21.73;14.75;;;14.40;98.80;;;;;;5053034;28;20032;-63
2023/04/21 06:25:21;;;;;;;22.08;13.90;;;14.60;97.30;;;;;;5054045;28;20358;-64
2023/04/21 06:27:47;;;;;;;24.55;16.58;;;14.90;96.00;;;;;;5053513;28;20458;-64
2023/04/21 06:30:13;;;;;;;17.70;12.80;;;15.00;94.80;;;;;;5053588;28;20029;-64
2023/04/21 06:32:39;;;;;;;18.88;13.27;;;15.30;94.40;;;;;;5053729;28;20473;-64
2023/04/21 06:35:05;;;;;;;21.95;13.43;;;15.40;93.30;;;;;;5052888;28;20131;-64
2023/04/21 06:37:31;;;;;;;19.25;14.38;;;15.50;92.60;;;;;;5053419;28;20120;-64
2023/04/21 06:39:56;;;;;;;18.20;13.10;;;15.50;92.20;;;;;;5052081;28;20374;-65
2023/04/21 06:42:22;;;;;;;14.60;10.50;;;15.40;91.20;;;;;;5052412;28;20029;-63
2023/04/21 06:44:48;;;;;;;13.38;9.50;;;15.50;91.10;;;;;;5052729;28;20041;-63
2023/04/21 06:47:15;;;;;;;12.38;9.02;;;15.70;90.70;;;;;;5054367;28;20485;-64
2023/04/21 06:49:41;;;;;;;13.32;8.23;;;15.80;87.90;;;;;;5052873;28;20025;-63
2023/04/21 06:52:07;;;;;;;13.65;9.63;;;15.90;86.30;;;;;;5054445;28;20048;-65
2023/04/21 06:54:32;;;;;;;14.70;8.60;;;16.10;86.30;;;;;;5054142;28;20025;-63
2023/04/21 06:56:58;;;;;;;14.02;9.00;;;16.10;84.90;;;;;;5050897;28;20032;-63
2023/04/21 06:59:24;;;;;;;13.60;8.75;;;16.00;84.70;;;;;;5052874;28;20082;-63
2023/04/21 07:01:51;;;;;;;14.82;8.10;;;16.60;84.80;;;;;;5052567;28;20380;-62
2023/04/21 07:04:17;;;;;;;15.52;8.15;;;17.30;81.50;;;;;;5053404;28;20028;-62
2023/04/21 07:06:43;;;;;;;9.75;7.80;;;17.20;79.00;;;;;;5052673;28;20021;-62
2023/04/21 07:09:09;;;;;;;9.68;7.30;;;17.50;80.40;;;;;;5051912;28;20473;-62
2023/04/21 07:11:34;;;;;;;11.63;7.38;;;18.50;75.10;;;;;;5053236;28;20041;-62
2023/04/21 07:14:01;;;;;;;10.77;6.93;;;19.40;72.20;;;;;;5053072;28;20036;-63
2023/04/21 07:16:28;;;;;;;10.43;7.45;;;20.40;68.50;;;;;;5053174;28;20063;-63
2023/04/21 07:18:53;;;;;;;18.15;7.75;;;21.20;64.40;;;;;;5052734;28;20338;-63
2023/04/21 07:21:19;;;;;;;12.18;6.65;;;21.80;61.70;;;;;;5053180;28;20032;-63
2023/04/21 07:23:44;;;;;;;11.70;7.10;;;22.40;59.30;;;;;;5052668;28;20426;-62
2023/04/21 07:26:10;;;;;;;14.80;7.30;;;22.90;57.80;;;;;;5052708;28;20028;-63
2023/04/21 07:28:36;;;;;;;10.75;6.88;;;23.30;55.80;;;;;;5052760;28;20021;-63
2023/04/21 07:31:02;;;;;;;14.05;7.60;;;23.40;54.90;;;;;;5052423;28;20043;-63
2023/04/21 07:33:28;;;;;;;14.57;7.97;;;23.60;55.80;;;;;;5051912;28;20024;-63
2023/04/21 07:35:53;;;;;;;11.40;7.40;;;24.10;54.00;;;;;;5052528;28;20021;-63
2023/04/21 07:38:19;;;;;;;12.27;7.00;;;24.60;51.50;;;;;;5052436;28;20021;-63
2023/04/21 07:40:45;;;;;;;10.10;6.70;;;25.10;50.50;;;;;;5051292;28;20033;-63
2023/04/21 07:43:10;;;;;;;9.68;5.93;;;25.30;48.10;;;;;;5052681;28;20025;-63
2023/04/21 07:45:36;;;;;;;11.07;6.18;;;25.40;47.80;;;;;;5052944;28;20128;-63
2023/04/21 07:48:02;;;;;;;11.05;7.10;;;25.60;46.90;;;;;;5050880;28;20033;-63
2023/04/21 07:50:27;;;;;;;11.80;6.75;;;25.60;46.80;;;;;;5052522;28;20483;-63
2023/04/21 07:52:53;;;;;;;10.55;6.93;;;25.90;47.70;;;;;;5051764;28;20362;-63
2023/04/21 07:55:19;;;;;;;12.35;6.18;;;26.10;44.90;;;;;;5052464;28;20029;-63
2023/04/21 07:57:44;;;;;;;12.00;6.10;;;26.40;44.40;;;;;;5052176;28;20044;-63
2023/04/21 08:00:11;;;;;;;12.32;6.68;;;26.50;44.50;;;;;;5052250;28;20518;-63
2023/04/21 08:02:36;;;;;;;14.35;7.20;;;26.70;43.40;;;;;;5052147;28;20488;-63
2023/04/21 08:05:02;;;;;;;13.60;7.95;;;26.90;43.90;;;;;;5052206;28;20043;-66
2023/04/21 08:07:27;;;;;;;14.00;7.60;;;26.90;43.70;;;;;;5052609;28;20446;-63
2023/04/21 08:09:53;;;;;;;10.05;6.97;;;27.10;43.10;;;;;;5052086;28;20495;-63
2023/04/21 08:12:19;;;;;;;13.88;7.15;;;27.50;41.90;;;;;;5052304;28;20124;-63
2023/04/21 08:14:44;;;;;;;18.98;7.63;;;27.50;41.90;;;;;;5052148;28;20350;-63
2023/04/21 08:17:10;;;;;;;13.35;6.63;;;27.60;41.60;;;;;;5052341;28;20025;-63
2023/04/21 08:19:35;;;;;;;11.20;6.38;;;27.50;41.00;;;;;;5052348;28;20374;-63
2023/04/21 08:22:01;;;;;;;10.48;6.07;;;27.40;40.90;;;;;;5050581;28;20044;-63
2023/04/21 08:24:27;;;;;;;9.70;5.80;;;27.40;41.50;;;;;;5051974;28;20053;-63
2023/04/21 08:26:52;;;;;;;14.75;5.93;;;27.40;40.40;;;;;;5051626;28;20120;-63
2023/04/21 08:29:18;;;;;;;9.82;5.22;;;26.90;40.80;;;;;;5051949;28;20029;-63
2023/04/21 08:31:44;;;;;;;11.02;5.38;;;26.90;41.10;;;;;;5051932;28;20033;-63
2023/04/21 08:34:09;;;;;;;15.13;5.10;;;26.70;40.30;;;;;;5052222;28;20116;-63
2023/04/21 08:36:35;;;;;;;11.48;5.03;;;26.40;42.10;;;;;;5052366;28;20106;-63
2023/04/21 08:39:01;;;;;;;11.63;4.72;;;26.00;42.70;;;;;;5051885;28;20363;-63
2023/04/21 08:41:27;;;;;;;12.55;5.45;;;25.70;41.00;;;;;;5052200;28;20489;-63
2023/04/21 08:43:52;;;;;;;14.02;5.15;;;25.10;42.40;;;;;;5051669;28;20060;-63
2023/04/21 08:46:18;;;;;;;12.55;5.10;;;24.60;43.90;;;;;;5052327;28;20385;-63
2023/04/21 08:48:45;;;;;;;12.55;4.45;;;24.40;44.30;;;;;;5050944;28;20082;-63
2023/04/21 08:51:19;;;;;;;13.43;5.03;;;23.90;45.40;;;;;;5054241;28;20513;-63
2023/04/21 08:53:45;;;;;;;12.63;5.32;;;23.40;46.70;;;;;;5056061;28;20029;-63
2023/04/21 08:56:11;;;;;;;9.93;4.90;;;23.00;48.10;;;;;;5055516;28;20032;-62
2023/04/21 08:58:36;;;;;;;17.13;5.55;;;22.80;49.90;;;;;;5055706;28;20033;-62
2023/04/21 09:01:02;;;;;;;13.35;5.47;;;22.60;48.80;;;;;;5055401;28;20033;-62
2023/04/21 09:03:30;;;;;;;11.77;4.85;;;22.50;49.10;;;;;;5055105;28;20025;-62
2023/04/21 09:06:06;;;;;;;14.07;5.15;;;22.20;50.00;;;;;;5054952;28;20094;-63
2023/04/21 09:08:33;;;;;;;11.93;5.25;;;21.90;51.40;;;;;;5055282;28;20029;-62
2023/04/21 09:11:02;;;;;;;9.65;5.03;;;21.80;51.60;;;;;;5054963;28;20438;-63
2023/04/21 09:13:31;;;;;;;14.57;5.25;;;21.60;50.70;;;;;;5055500;28;20170;-61
2023/04/21 09:15:57;;;;;;;10.48;5.22;;;21.60;51.30;;;;;;5054791;28;20021;-62
2023/04/21 09:18:25;;;;;;;13.10;4.55;;;21.50;50.60;;;;;;5055789;28;20374;-63
2023/04/21 09:21:07;;;;;;;12.27;4.72;;;21.50;51.50;;;;;;5055013;28;20484;-63
2023/04/21 09:23:43;;;;;;;13.63;4.55;;;21.60;51.30;;;;;;5055117;28;20033;-63
2023/04/21 09:26:10;;;;;;;9.82;5.13;;;21.40;52.30;;;;;;5054699;28;20021;-62
2023/04/21 09:28:36;;;;;;;10.23;4.63;;;21.40;52.20;;;;;;5055130;28;20028;-62
2023/04/21 09:31:01;;;;;;;12.35;4.82;;;21.30;52.90;;;;;;5054646;28;20363;-63
2023/04/21 09:33:27;;;;;;;11.35;3.83;;;21.00;52.20;;;;;;5053586;28;20028;-63
2023/04/21 09:35:53;;;;;;;12.13;4.18;;;20.80;52.10;;;;;;5054553;28;20032;-62
2023/04/21 09:38:21;;;;;;;14.38;4.35;;;20.60;50.00;;;;;;5054900;28;20091;-63
2023/04/21 09:40:57;;;;;;;10.73;4.70;;;20.30;49.30;;;;;;5055013;28;20033;-63
2023/04/21 09:43:23;;;;;;;13.07;3.67;;;20.10;50.30;;;;;;5054800;28;20457;-62
2023/04/21 09:45:49;;;;;;;13.85;3.80;;;20.00;51.00;;;;;;5054149;28;20044;-62
2023/04/21 09:48:16;;;;;;;12.48;3.95;;;20.00;51.80;;;;;;5052840;28;20029;-63
2023/04/21 09:50:42;;;;;;;10.68;3.65;;;20.00;51.80;;;;;;5054496;28;20481;-62
2023/04/21 09:53:13;;;;;;;14.88;4.00;;;19.90;50.10;;;;;;5054019;28;20025;-62
2023/04/21 09:55:40;;;;;;;;;;;20.00;51.30;;;;;;5055033;28;20025;-62
2023/04/21 09:58:08;;;;;;;10.13;4.32;;;19.90;50.30;;;;;;5054277;28;19967;-62
2023/04/21 10:00:38;;;;;;;10.95;3.83;;;19.90;50.90;;;;;;5054528;28;20116;-62
2023/04/21 10:03:04;;;;;;;10.65;4.38;;;19.90;51.00;;;;;;5053500;28;20025;-63
2023/04/21 10:05:30;;;;;;;15.63;4.00;;;20.00;51.20;;;;;;5054424;28;20408;-63
2023/04/21 10:07:57;;;;;;;8.18;3.58;;;20.10;50.50;;;;;;5054396;28;20031;-62
2023/04/21 10:10:26;;;;;;;10.73;3.80;;;20.10;50.80;;;;;;5054449;28;20033;-63
2023/04/21 10:12:52;;;;;;;13.07;4.05;;;20.10;50.50;;;;;;5054376;28;20029;-62
2023/04/21 10:15:38;;;;;;;6.95;3.40;;;20.20;51.30;;;;;;5053079;28;20025;-62
2023/04/21 10:18:22;;;;;;;9.88;3.90;;;20.30;50.70;;;;;;5052868;28;20025;-63
2023/04/21 10:20:57;;;;;;;12.65;4.47;;;20.30;49.40;;;;;;5053851;28;20068;-63
2023/04/21 10:23:45;;;;;;;13.75;3.38;;;20.40;48.50;;;;;;5054273;28;20025;-63
2023/04/21 10:26:12;;;;;;;10.38;3.88;;;20.40;47.50;;;;;;5053790;28;20405;-62
2023/04/21 10:28:43;;;;;;;10.73;4.07;;;20.40;49.10;;;;;;5054071;28;20063;-62
2023/04/21 10:31:35;;;;;;;10.68;4.10;;;20.40;47.80;;;;;;5053542;28;20033;-62
2023/04/21 10:34:12;;;;;;;8.55;3.17;;;20.40;48.60;;;;;;5053128;28;20113;-63
2023/04/21 10:36:49;;;;;;;7.35;3.63;;;20.40;47.30;;;;;;5052812;28;20500;-63
2023/04/21 10:39:35;;;;;;;10.30;4.03;;;20.50;47.10;;;;;;5053456;28;20028;-62
2023/04/21 10:42:12;;;;;;;13.52;3.63;;;20.60;48.20;;;;;;5053369;28;20098;-63
2023/04/21 10:44:41;;;;;;;11.00;3.40;;;20.60;47.10;;;;;;5053669;28;20425;-63
2023/04/21 10:47:07;;;;;;;13.27;3.80;;;20.70;47.60;;;;;;5053326;28;20025;-63
2023/04/21 10:49:37;;;;;;;10.20;4.47;;;20.70;47.20;;;;;;5053944;28;20048;-63
2023/04/21 10:52:08;;;;;;;9.77;3.50;;;20.80;47.20;;;;;;5053298;28;20127;-63
2023/04/21 10:54:36;;;;;;;9.30;3.83;;;20.90;47.90;;;;;;5051284;28;20025;-62
2023/04/21 10:57:06;;;;;;;10.50;3.83;;;21.00;47.80;;;;;;5053311;28;20021;-62
2023/04/21 10:59:34;;;;;;;13.10;4.05;;;21.00;48.40;;;;;;5053012;28;20040;-62
2023/04/21 11:02:26;;;;;;;10.65;3.90;;;21.00;47.00;;;;;;5051595;28;20055;-63
2023/04/21 11:04:53;;;;;;;7.68;3.30;;;21.10;47.30;;;;;;5052335;28;20037;-62
2023/04/21 11:07:25;;;;;;;9.20;4.20;;;21.10;46.20;;;;;;5052873;28;20063;-62
2023/04/21 11:10:02;;;;;;;17.40;3.92;;;21.10;46.90;;;;;;5053318;28;20033;-62
2023/04/21 11:12:33;;;;;;;13.07;3.40;;;21.20;47.80;;;;;;5053124;28;20095;-62
2023/04/21 11:15:04;;;;;;;8.90;3.33;;;21.10;46.30;;;;;;5051633;28;20025;-62
2023/04/21 11:17:30;;;;;;;9.20;3.33;;;21.10;46.00;;;;;;5052958;28;20489;-62
2023/04/21 11:19:56;;;;;;;10.13;3.35;;;21.20;44.80;;;;;;5052857;28;20377;-62
2023/04/21 11:22:25;;;;;;;13.40;4.00;;;21.10;44.20;;;;;;5052604;28;20029;-62
2023/04/21 11:24:54;;;;;;;9.57;3.38;;;21.20;45.80;;;;;;5052860;28;20051;-62
2023/04/21 11:27:21;;;;;;;7.20;2.83;;;21.20;46.10;;;;;;5052340;28;20147;-62
2023/04/21 11:29:50;;;;;;;8.50;2.90;;;21.10;44.10;;;;;;5052434;28;20033;-62
2023/04/21 11:32:17;;;;;;;13.75;3.05;;;21.10;43.90;;;;;;5051890;28;20060;-62
2023/04/21 11:34:43;;;;;;;14.05;3.72;;;21.20;43.60;;;;;;5052789;28;20483;-62
2023/04/21 11:37:15;;;;;;;7.65;3.63;;;21.20;44.20;;;;;;5052150;28;20080;-62
2023/04/21 11:39:42;;;;;;;7.47;2.53;;;21.20;42.00;;;;;;5052996;28;20057;-62
2023/04/21 11:42:08;;;;;;;4.82;2.85;;;21.20;41.80;;;;;;5052159;28;20033;-62
2023/04/21 11:44:41;;;;;;;11.50;2.92;;;21.20;40.60;;;;;;5052615;28;20044;-63
2023/04/21 11:47:15;;;;;;;7.57;2.85;;;21.20;41.90;;;;;;5051033;28;20031;-64
2023/04/21 11:49:55;;;;;;;12.68;2.80;;;21.20;41.10;;;;;;5052642;28;20025;-63
2023/04/21 11:52:25;;;;;;;8.63;2.78;;;21.20;39.80;;;;;;5051653;28;20053;-63
2023/04/21 11:55:00;;;;;;;8.43;2.72;;;21.20;38.40;;;;;;5052146;28;20033;-63
2023/04/21 11:57:28;;;;;;;11.70;2.95;;;21.20;38.80;;;;;;5052756;28;20159;-62
2023/04/21 11:59:57;;;;;;;11.85;3.22;;;21.20;39.10;;;;;;5052548;28;20021;-63
2023/04/21 12:02:28;;;;;;;10.40;2.75;;;21.10;38.70;;;;;;5052152;28;20036;-63
2023/04/21 12:05:07;;;;;;;;;;;21.10;40.50;;;;;;5052801;28;20041;-62
2023/04/21 12:07:54;;;;;;;8.05;2.78;;;21.10;39.80;;;;;;5052591;28;20384;-62
2023/04/21 12:10:20;;;;;;;16.38;3.08;;;21.10;40.50;;;;;;5051796;28;20487;-62
2023/04/21 12:12:46;;;;;;;7.85;2.50;;;21.00;40.00;;;;;;5051888;28;20075;-62
2023/04/21 12:15:18;;;;;;;6.97;2.47;;;20.80;39.70;;;;;;5051501;28;20021;-63
2023/04/21 12:17:52;;;;;;;7.32;2.70;;;20.70;38.90;;;;;;5052030;28;20036;-63
2023/04/21 12:20:19;;;;;;;6.55;2.90;;;20.60;39.70;;;;;;5051326;28;20343;-65
2023/04/21 12:22:45;;;;;;;8.68;2.97;;;20.50;39.80;;;;;;5051086;28;20071;-62
2023/04/21 12:25:12;;;;;;;4.30;2.40;;;20.30;39.30;;;;;;5052043;28;20491;-63
2023/04/21 12:27:46;;;;;;;8.43;2.90;;;20.30;39.50;;;;;;5055852;28;20048;-63
2023/04/21 12:30:12;;;;;;;10.73;3.10;;;20.20;40.60;;;;;;5055697;28;20112;-63
2023/04/21 12:32:38;;;;;;;9.48;2.70;;;20.00;41.70;;;;;;5054850;28;20504;-63
2023/04/21 12:35:04;;;;;;;12.48;3.50;;;19.90;42.10;;;;;;5055648;28;20104;-64